createdAt,value
2023-04-16T00:00:19.334Z,8.53
2023-04-16T00:01:19.322Z,8.53
2023-04-16T00:02:19.436Z,8.55
2023-04-16T00:03:19.446Z,8.55
2023-04-16T00:04:19.391Z,8.55
2023-04-16T00:05:19.267Z,8.55
2023-04-16T00:06:19.261Z,8.53
2023-04-16T00:07:19.269Z,8.56
2023-04-16T00:08:19.253Z,8.55
2023-04-16T00:09:19.261Z,8.55
2023-04-16T00:10:19.210Z,8.58
2023-04-16T00:11:19.219Z,8.56
2023-04-16T00:12:19.207Z,8.58
2023-04-16T00:13:19.190Z,8.55
2023-04-16T00:14:19.183Z,8.56
2023-04-16T00:15:19.209Z,8.56
2023-04-16T00:16:19.226Z,8.55
2023-04-16T00:17:19.196Z,8.58
2023-04-16T00:18:19.161Z,8.58
2023-04-16T00:19:19.131Z,8.55
2023-04-16T00:20:19.438Z,8.56
2023-04-16T00:21:19.100Z,8.55
2023-04-16T00:22:19.111Z,8.58
2023-04-16T00:23:19.146Z,8.55
2023-04-16T00:24:19.080Z,8.55
2023-04-16T00:25:19.079Z,8.58
2023-04-16T00:26:19.078Z,8.56
2023-04-16T00:27:19.050Z,8.58
2023-04-16T00:28:19.053Z,8.56
2023-04-16T00:29:19.028Z,8.56
2023-04-16T00:30:19.034Z,8.58
2023-04-16T00:31:19.052Z,8.56
2023-04-16T00:32:19.112Z,8.56
2023-04-16T00:33:18.999Z,8.56
2023-04-16T00:34:18.987Z,8.55
2023-04-16T00:35:18.986Z,8.55
2023-04-16T00:36:18.953Z,8.56
2023-04-16T00:37:18.988Z,8.53
2023-04-16T00:38:18.929Z,8.55
2023-04-16T00:39:18.932Z,8.53
2023-04-16T00:40:18.912Z,8.53
2023-04-16T00:41:18.940Z,8.56
2023-04-16T00:42:18.893Z,8.53
2023-04-16T00:43:18.926Z,8.55
2023-04-16T00:44:18.872Z,8.53
2023-04-16T00:45:18.876Z,8.53
2023-04-16T00:46:18.902Z,8.52
2023-04-16T00:47:18.863Z,8.51
2023-04-16T00:48:18.848Z,8.49
2023-04-16T00:49:18.840Z,8.51
2023-04-16T00:50:18.813Z,8.49
2023-04-16T00:51:18.806Z,8.48
2023-04-16T00:52:18.788Z,8.49
2023-04-16T00:53:18.815Z,8.49
2023-04-16T00:54:18.770Z,8.51
2023-04-16T00:55:18.776Z,8.49
2023-04-16T00:56:18.752Z,8.51
2023-04-16T00:57:18.746Z,8.51
2023-04-16T00:58:18.743Z,8.51
2023-04-16T00:59:18.768Z,8.52
2023-04-16T01:00:18.704Z,8.52
2023-04-16T01:01:18.728Z,8.52
2023-04-16T01:02:18.752Z,8.53
2023-04-16T01:03:18.815Z,8.53
2023-04-16T01:04:18.767Z,8.53
2023-04-16T01:05:18.705Z,8.53
2023-04-16T01:06:18.652Z,8.56
2023-04-16T01:07:18.652Z,8.55
2023-04-16T01:08:18.657Z,8.53
2023-04-16T01:09:18.645Z,8.52
2023-04-16T01:10:18.620Z,8.52
2023-04-16T01:11:18.630Z,8.52
2023-04-16T01:12:18.602Z,8.53
2023-04-16T01:13:18.589Z,8.51
2023-04-16T01:14:18.578Z,8.52
2023-04-16T01:15:18.560Z,8.51
2023-04-16T01:16:18.652Z,8.52
2023-04-16T01:17:18.531Z,8.52
2023-04-16T01:18:18.522Z,8.51
2023-04-16T01:19:18.611Z,8.53
2023-04-16T01:20:18.512Z,8.53
2023-04-16T01:21:18.496Z,8.52
2023-04-16T01:22:18.917Z,8.52
2023-04-16T01:23:18.495Z,8.53
2023-04-16T01:24:18.495Z,8.55
2023-04-16T01:25:18.467Z,8.56
2023-04-16T01:26:18.473Z,8.56
2023-04-16T01:27:18.435Z,8.58
2023-04-16T01:28:18.452Z,8.56
2023-04-16T01:29:18.421Z,8.58
2023-04-16T01:30:18.440Z,8.60
2023-04-16T01:31:18.529Z,8.58
2023-04-16T01:32:18.447Z,8.58
2023-04-16T01:33:18.389Z,8.58
2023-04-16T01:34:18.370Z,8.60
2023-04-16T01:35:18.382Z,8.58
2023-04-16T01:36:18.394Z,8.60
2023-04-16T01:37:18.343Z,8.60
2023-04-16T01:38:18.358Z,8.60
2023-04-16T01:39:18.335Z,8.61
2023-04-16T01:40:18.301Z,8.60
2023-04-16T01:41:18.325Z,8.61
2023-04-16T01:42:18.290Z,8.61
2023-04-16T01:43:18.309Z,8.60
2023-04-16T01:44:18.273Z,8.60
2023-04-16T01:45:18.250Z,8.60
2023-04-16T01:46:18.292Z,8.60
2023-04-16T01:47:18.293Z,8.61
2023-04-16T01:48:18.293Z,8.61
2023-04-16T01:49:18.226Z,8.58
2023-04-16T01:50:18.244Z,8.61
2023-04-16T01:51:18.215Z,8.61
2023-04-16T01:52:18.255Z,8.61
2023-04-16T01:53:18.224Z,8.61
2023-04-16T01:54:18.184Z,8.63
2023-04-16T01:55:18.155Z,8.61
2023-04-16T01:56:18.155Z,8.61
2023-04-16T01:57:18.146Z,8.61
2023-04-16T01:58:18.159Z,8.63
2023-04-16T01:59:18.125Z,8.63
2023-04-16T02:00:18.118Z,8.61
2023-04-16T02:01:18.141Z,8.63
2023-04-16T02:02:18.190Z,8.63
2023-04-16T02:03:18.192Z,8.63
2023-04-16T02:04:18.103Z,8.64
2023-04-16T02:05:18.068Z,8.63
2023-04-16T02:06:18.063Z,8.64
2023-04-16T02:07:18.026Z,8.64
2023-04-16T02:08:18.042Z,8.61
2023-04-16T02:09:18.051Z,8.66
2023-04-16T02:10:18.035Z,8.61
2023-04-16T02:11:18.013Z,8.64
2023-04-16T02:12:17.985Z,8.63
2023-04-16T02:13:17.979Z,8.63
2023-04-16T02:14:17.974Z,8.63
2023-04-16T02:15:17.961Z,8.63
2023-04-16T02:16:18.024Z,8.63
2023-04-16T02:17:17.973Z,8.64
2023-04-16T02:18:17.925Z,8.61
2023-04-16T02:19:17.913Z,8.64
2023-04-16T02:20:17.922Z,8.63
2023-04-16T02:21:17.890Z,8.64
2023-04-16T02:22:17.942Z,8.63
2023-04-16T02:23:17.859Z,8.63
2023-04-16T02:24:17.871Z,8.64
2023-04-16T02:25:17.860Z,8.66
2023-04-16T02:26:17.843Z,8.66
2023-04-16T02:27:17.848Z,8.66
2023-04-16T02:28:17.847Z,8.64
2023-04-16T02:29:17.816Z,8.63
2023-04-16T02:30:17.799Z,8.64
2023-04-16T02:31:17.886Z,8.64
2023-04-16T02:32:17.796Z,8.66
2023-04-16T02:33:17.764Z,8.63
2023-04-16T02:34:17.764Z,8.64
2023-04-16T02:35:17.741Z,8.66
2023-04-16T02:36:17.748Z,8.64
2023-04-16T02:37:17.745Z,8.64
2023-04-16T02:38:17.730Z,8.66
2023-04-16T02:39:17.712Z,8.64
2023-04-16T02:40:17.691Z,8.66
2023-04-16T02:41:17.678Z,8.66
2023-04-16T02:42:17.712Z,8.66
2023-04-16T02:43:17.670Z,8.66
2023-04-16T02:44:17.672Z,8.64
2023-04-16T02:45:17.658Z,8.69
2023-04-16T02:46:17.649Z,8.67
2023-04-16T02:47:17.687Z,8.69
2023-04-16T02:48:17.657Z,8.70
2023-04-16T02:49:17.614Z,8.69
2023-04-16T02:50:17.605Z,8.70
2023-04-16T02:51:17.613Z,8.71
2023-04-16T02:52:17.589Z,8.69
2023-04-16T02:53:17.625Z,8.70
2023-04-16T02:54:17.555Z,8.71
2023-04-16T02:55:17.557Z,8.73
2023-04-16T02:56:17.537Z,8.73
2023-04-16T02:57:17.523Z,8.71
2023-04-16T02:58:17.550Z,8.76
2023-04-16T02:59:17.534Z,8.76
2023-04-16T03:00:17.499Z,8.76
2023-04-16T03:01:17.560Z,8.76
2023-04-16T03:02:17.498Z,8.76
2023-04-16T03:03:17.505Z,8.78
2023-04-16T03:04:17.528Z,8.78
2023-04-16T03:05:17.485Z,8.78
2023-04-16T03:06:17.484Z,8.78
2023-04-16T03:07:17.428Z,8.79
2023-04-16T03:08:17.405Z,8.78
2023-04-16T03:09:17.407Z,8.81
2023-04-16T03:10:17.414Z,8.81
2023-04-16T03:11:17.399Z,8.81
2023-04-16T03:12:17.367Z,8.79
2023-04-16T03:13:17.371Z,8.82
2023-04-16T03:14:17.352Z,8.82
2023-04-16T03:15:17.391Z,8.84
2023-04-16T03:16:17.444Z,8.84
2023-04-16T03:17:17.350Z,8.82
2023-04-16T03:18:17.328Z,8.84
2023-04-16T03:19:17.300Z,8.82
2023-04-16T03:20:17.297Z,8.84
2023-04-16T03:21:17.324Z,8.84
2023-04-16T03:22:17.287Z,8.82
2023-04-16T03:23:17.290Z,8.82
2023-04-16T03:24:17.249Z,8.81
2023-04-16T03:25:17.268Z,8.84
2023-04-16T03:26:17.608Z,8.82
2023-04-16T03:27:17.234Z,8.81
2023-04-16T03:28:17.208Z,8.81
2023-04-16T03:29:17.214Z,8.82
2023-04-16T03:30:17.187Z,8.82
2023-04-16T03:31:17.228Z,8.81
2023-04-16T03:32:17.238Z,8.81
2023-04-16T03:33:17.152Z,8.81
2023-04-16T03:34:17.157Z,8.81
2023-04-16T03:35:17.163Z,8.81
2023-04-16T03:36:17.150Z,8.81
2023-04-16T03:37:17.168Z,8.81
2023-04-16T03:38:17.108Z,8.81
2023-04-16T03:39:17.099Z,8.79
2023-04-16T03:40:17.091Z,8.81
2023-04-16T03:41:17.081Z,8.79
2023-04-16T03:42:17.100Z,8.78
2023-04-16T03:43:17.060Z,8.79
2023-04-16T03:44:17.048Z,8.81
2023-04-16T03:45:17.042Z,8.79
2023-04-16T03:46:17.040Z,8.79
2023-04-16T03:47:17.031Z,8.79
2023-04-16T03:48:17.041Z,8.78
2023-04-16T03:49:17.002Z,8.76
2023-04-16T03:50:17.002Z,8.78
2023-04-16T03:51:16.976Z,8.76
2023-04-16T03:52:16.981Z,8.78
2023-04-16T03:53:16.985Z,8.74
2023-04-16T03:54:16.967Z,8.76
2023-04-16T03:55:16.960Z,8.74
2023-04-16T03:56:16.939Z,8.74
2023-04-16T03:57:16.937Z,8.74
2023-04-16T03:58:16.907Z,8.76
2023-04-16T03:59:16.919Z,8.74
2023-04-16T04:00:16.921Z,8.74
2023-04-16T04:01:16.886Z,8.73
2023-04-16T04:02:16.953Z,8.73
2023-04-16T04:03:17.394Z,8.73
2023-04-16T04:04:16.954Z,8.71
2023-04-16T04:05:16.838Z,8.74
2023-04-16T04:06:16.874Z,8.74
2023-04-16T04:07:16.826Z,8.73
2023-04-16T04:08:16.801Z,8.74
2023-04-16T04:09:16.816Z,8.73
2023-04-16T04:10:16.791Z,8.74
2023-04-16T04:11:16.782Z,8.74
2023-04-16T04:12:16.777Z,8.74
2023-04-16T04:13:16.759Z,8.74
2023-04-16T04:14:16.732Z,8.76
2023-04-16T04:15:16.740Z,8.74
2023-04-16T04:16:16.762Z,8.73
2023-04-16T04:17:16.743Z,8.74
2023-04-16T04:18:16.705Z,8.73
2023-04-16T04:19:16.705Z,8.73
2023-04-16T04:20:16.689Z,8.74
2023-04-16T04:21:16.679Z,8.71
2023-04-16T04:22:16.678Z,8.70
2023-04-16T04:23:16.744Z,8.69
2023-04-16T04:24:16.648Z,8.69
2023-04-16T04:25:16.648Z,8.67
2023-04-16T04:26:16.668Z,8.67
2023-04-16T04:27:16.614Z,8.67
2023-04-16T04:28:16.593Z,8.67
2023-04-16T04:29:16.654Z,8.67
2023-04-16T04:30:16.578Z,8.69
2023-04-16T04:31:16.608Z,8.70
2023-04-16T04:32:16.564Z,8.69
2023-04-16T04:33:16.547Z,8.67
2023-04-16T04:34:16.576Z,8.70
2023-04-16T04:35:16.546Z,8.70
2023-04-16T04:36:16.534Z,8.73
2023-04-16T04:37:16.521Z,8.71
2023-04-16T04:38:16.503Z,8.73
2023-04-16T04:39:16.482Z,8.73
2023-04-16T04:40:16.497Z,8.73
2023-04-16T04:41:16.461Z,8.74
2023-04-16T04:42:16.456Z,8.73
2023-04-16T04:43:16.463Z,8.73
2023-04-16T04:44:16.453Z,8.73
2023-04-16T04:45:16.468Z,8.74
2023-04-16T04:46:16.460Z,8.76
2023-04-16T04:47:16.417Z,8.76
2023-04-16T04:48:16.424Z,8.76
2023-04-16T04:49:16.406Z,8.76
2023-04-16T04:50:16.393Z,8.78
2023-04-16T04:51:16.419Z,8.76
2023-04-16T04:52:16.373Z,8.79
2023-04-16T04:53:16.382Z,8.78
2023-04-16T04:54:16.327Z,8.79
2023-04-16T04:55:16.339Z,8.81
2023-04-16T04:56:16.326Z,8.82
2023-04-16T04:57:16.341Z,8.82
2023-04-16T04:58:16.296Z,8.82
2023-04-16T04:59:16.305Z,8.84
2023-04-16T05:00:16.281Z,8.84
2023-04-16T05:01:16.321Z,8.84
2023-04-16T05:02:16.421Z,8.85
2023-04-16T05:03:16.325Z,8.85
2023-04-16T05:04:16.351Z,8.85
2023-04-16T05:05:16.297Z,8.85
2023-04-16T05:06:16.220Z,8.87
2023-04-16T05:07:16.218Z,8.85
2023-04-16T05:08:16.213Z,8.85
2023-04-16T05:09:16.177Z,8.87
2023-04-16T05:10:16.167Z,8.88
2023-04-16T05:11:16.185Z,8.88
2023-04-16T05:12:16.159Z,8.88
2023-04-16T05:13:16.210Z,8.89
2023-04-16T05:14:16.142Z,8.91
2023-04-16T05:15:16.129Z,8.89
2023-04-16T05:16:16.132Z,8.91
2023-04-16T05:17:16.184Z,8.91
2023-04-16T05:18:16.117Z,8.94
2023-04-16T05:19:16.082Z,8.92
2023-04-16T05:20:16.112Z,8.95
2023-04-16T05:21:16.058Z,8.94
2023-04-16T05:22:16.060Z,8.92
2023-04-16T05:23:16.061Z,8.94
2023-04-16T05:24:16.069Z,8.95
2023-04-16T05:25:16.040Z,8.95
2023-04-16T05:26:16.028Z,8.97
2023-04-16T05:27:16.019Z,8.94
2023-04-16T05:28:16.005Z,8.97
2023-04-16T05:29:15.993Z,8.99
2023-04-16T05:30:16.048Z,9.00
2023-04-16T05:31:16.021Z,9.00
2023-04-16T05:32:15.974Z,9.03
2023-04-16T05:33:15.938Z,9.02
2023-04-16T05:34:15.926Z,9.00
2023-04-16T05:35:17.536Z,9.02
2023-04-16T05:36:16.000Z,9.04
2023-04-16T05:37:15.911Z,9.02
2023-04-16T05:38:15.888Z,9.02
2023-04-16T05:39:15.900Z,9.00
2023-04-16T05:40:15.906Z,9.02
2023-04-16T05:41:15.892Z,9.02
2023-04-16T05:42:15.851Z,9.03
2023-04-16T05:43:15.907Z,9.04
2023-04-16T05:44:15.840Z,9.04
2023-04-16T05:45:15.832Z,9.04
2023-04-16T05:46:15.880Z,9.06
2023-04-16T05:47:15.831Z,9.06
2023-04-16T05:48:15.803Z,9.06
2023-04-16T05:49:15.798Z,9.04
2023-04-16T05:50:15.787Z,9.08
2023-04-16T05:51:15.778Z,9.10
2023-04-16T05:52:15.799Z,9.10
2023-04-16T05:53:15.803Z,9.13
2023-04-16T05:54:15.742Z,9.11
2023-04-16T05:55:15.729Z,9.11
2023-04-16T05:56:15.748Z,9.11
2023-04-16T05:57:15.697Z,9.13
2023-04-16T05:58:15.710Z,9.14
2023-04-16T05:59:15.676Z,9.14
2023-04-16T06:00:15.668Z,9.16
2023-04-16T06:01:15.667Z,9.16
2023-04-16T06:02:15.714Z,9.16
2023-04-16T06:03:15.882Z,9.16
2023-04-16T06:04:15.776Z,9.18
2023-04-16T06:05:15.649Z,9.18
2023-04-16T06:06:15.605Z,9.19
2023-04-16T06:07:15.608Z,9.21
2023-04-16T06:08:15.586Z,9.23
2023-04-16T06:09:15.608Z,9.22
2023-04-16T06:10:15.568Z,9.23
2023-04-16T06:11:15.559Z,9.25
2023-04-16T06:12:15.541Z,9.26
2023-04-16T06:13:15.545Z,9.26
2023-04-16T06:14:15.535Z,9.29
2023-04-16T06:15:15.535Z,9.32
2023-04-16T06:16:15.552Z,9.34
2023-04-16T06:17:15.532Z,9.36
2023-04-16T06:18:15.636Z,9.37
2023-04-16T06:19:15.507Z,9.37
2023-04-16T06:20:15.462Z,9.39
2023-04-16T06:21:15.458Z,9.41
2023-04-16T06:22:15.448Z,9.40
2023-04-16T06:23:15.445Z,9.43
2023-04-16T06:24:15.425Z,9.43
2023-04-16T06:25:17.655Z,9.43
2023-04-16T06:26:15.394Z,9.43
2023-04-16T06:27:15.400Z,9.43
2023-04-16T06:28:15.415Z,9.44
2023-04-16T06:29:15.380Z,9.44
2023-04-16T06:30:15.401Z,9.46
2023-04-16T06:31:15.411Z,9.46
2023-04-16T06:32:15.364Z,9.46
2023-04-16T06:33:15.353Z,9.48
2023-04-16T06:34:15.335Z,9.47
2023-04-16T06:35:15.304Z,9.48
2023-04-16T06:36:15.510Z,9.47
2023-04-16T06:37:15.288Z,9.48
2023-04-16T06:38:15.334Z,9.48
2023-04-16T06:39:15.283Z,9.50
2023-04-16T06:40:15.272Z,9.48
2023-04-16T06:41:15.272Z,9.50
2023-04-16T06:42:15.262Z,9.48
2023-04-16T06:43:15.252Z,9.48
2023-04-16T06:44:15.241Z,9.48
2023-04-16T06:45:15.225Z,9.50
2023-04-16T06:46:15.242Z,9.50
2023-04-16T06:47:15.225Z,9.50
2023-04-16T06:48:15.183Z,9.48
2023-04-16T06:49:15.173Z,9.47
2023-04-16T06:50:15.156Z,9.47
2023-04-16T06:51:15.157Z,9.48
2023-04-16T06:52:15.167Z,9.46
2023-04-16T06:53:15.171Z,9.48
2023-04-16T06:54:15.130Z,9.47
2023-04-16T06:55:15.120Z,9.48
2023-04-16T06:56:15.106Z,9.48
2023-04-16T06:57:15.130Z,9.50
2023-04-16T06:58:15.316Z,9.48
2023-04-16T06:59:15.082Z,9.48
2023-04-16T07:00:15.060Z,9.50
2023-04-16T07:01:15.082Z,9.48
2023-04-16T07:02:15.094Z,9.50
2023-04-16T07:03:15.258Z,9.48
2023-04-16T07:04:15.074Z,9.48
2023-04-16T07:05:15.012Z,9.48
2023-04-16T07:06:15.003Z,9.47
2023-04-16T07:07:15.008Z,9.48
2023-04-16T07:08:14.983Z,9.48
2023-04-16T07:09:14.991Z,9.48
2023-04-16T07:10:14.998Z,9.48
2023-04-16T07:11:14.956Z,9.50
2023-04-16T07:12:14.945Z,9.50
2023-04-16T07:13:14.939Z,9.48
2023-04-16T07:14:14.929Z,9.50
2023-04-16T07:15:14.938Z,9.50
2023-04-16T07:16:14.967Z,9.50
2023-04-16T07:17:14.895Z,9.51
2023-04-16T07:18:14.922Z,9.51
2023-04-16T07:19:14.864Z,9.51
2023-04-16T07:20:14.862Z,9.54
2023-04-16T07:21:14.865Z,9.55
2023-04-16T07:22:14.832Z,9.55
2023-04-16T07:23:14.835Z,9.56
2023-04-16T07:24:14.825Z,9.55
2023-04-16T07:25:14.819Z,9.55
2023-04-16T07:26:14.840Z,9.61
2023-04-16T07:27:14.798Z,9.59
2023-04-16T07:28:14.786Z,9.61
2023-04-16T07:29:14.777Z,9.62
2023-04-16T07:30:14.784Z,9.64
2023-04-16T07:31:14.744Z,9.65
2023-04-16T07:32:15.539Z,9.68
2023-04-16T07:33:14.725Z,9.66
2023-04-16T07:34:14.725Z,9.69
2023-04-16T07:35:14.708Z,9.69
2023-04-16T07:36:14.691Z,9.73
2023-04-16T07:37:15.012Z,9.72
2023-04-16T07:38:14.700Z,9.73
2023-04-16T07:39:14.681Z,9.73
2023-04-16T07:40:14.666Z,9.74
2023-04-16T07:41:14.655Z,9.77
2023-04-16T07:42:14.669Z,9.79
2023-04-16T07:43:14.690Z,9.79
2023-04-16T07:44:14.624Z,9.79
2023-04-16T07:45:14.618Z,9.76
2023-04-16T07:46:14.660Z,9.77
2023-04-16T07:47:14.581Z,9.76
2023-04-16T07:48:14.569Z,9.77
2023-04-16T07:49:14.601Z,9.77
2023-04-16T07:50:14.579Z,9.77
2023-04-16T07:51:14.551Z,9.77
2023-04-16T07:52:14.545Z,9.77
2023-04-16T07:53:14.526Z,9.76
2023-04-16T07:54:14.533Z,9.77
2023-04-16T07:55:14.516Z,9.79
2023-04-16T07:56:14.503Z,9.79
2023-04-16T07:57:14.507Z,9.82
2023-04-16T07:58:14.467Z,9.83
2023-04-16T07:59:22.932Z,9.83
2023-04-16T08:00:14.489Z,9.84
2023-04-16T08:01:14.434Z,9.84
2023-04-16T08:02:14.456Z,9.87
2023-04-16T08:03:14.598Z,9.89
2023-04-16T08:04:14.566Z,9.87
2023-04-16T08:05:14.455Z,9.87
2023-04-16T08:06:14.440Z,9.89
2023-04-16T08:07:14.394Z,9.91
2023-04-16T08:08:14.378Z,9.91
2023-04-16T08:09:14.369Z,9.94
2023-04-16T08:10:14.364Z,9.98
2023-04-16T08:11:14.327Z,9.99
2023-04-16T08:12:14.352Z,9.99
2023-04-16T08:13:14.321Z,9.99
2023-04-16T08:14:14.303Z,9.99
2023-04-16T08:15:14.307Z,10.01
2023-04-16T08:16:14.300Z,9.99
2023-04-16T08:17:14.302Z,10.02
2023-04-16T08:18:14.277Z,10.04
2023-04-16T08:19:14.282Z,10.05
2023-04-16T08:20:17.605Z,10.07
2023-04-16T08:21:14.251Z,10.05
2023-04-16T08:22:14.248Z,10.05
2023-04-16T08:23:14.252Z,10.07
2023-04-16T08:24:14.211Z,10.05
2023-04-16T08:25:14.206Z,10.05
2023-04-16T08:26:14.190Z,10.07
2023-04-16T08:27:18.309Z,10.10
2023-04-16T08:28:14.215Z,10.10
2023-04-16T08:29:14.169Z,10.13
2023-04-16T08:30:14.152Z,10.15
2023-04-16T08:31:14.208Z,10.15
2023-04-16T08:32:14.138Z,10.16
2023-04-16T08:33:14.181Z,10.16
2023-04-16T08:34:14.146Z,10.17
2023-04-16T08:35:14.098Z,10.17
2023-04-16T08:36:14.092Z,10.20
2023-04-16T08:37:14.067Z,10.22
2023-04-16T08:38:14.065Z,10.25
2023-04-16T08:39:14.115Z,10.26
2023-04-16T08:40:14.072Z,10.28
2023-04-16T08:41:14.037Z,10.31
2023-04-16T08:42:14.043Z,10.33
2023-04-16T08:43:14.043Z,10.35
2023-04-16T08:44:14.016Z,10.38
2023-04-16T08:45:14.022Z,10.40
2023-04-16T08:46:14.022Z,10.40
2023-04-16T08:47:13.987Z,10.41
2023-04-16T08:48:13.985Z,10.42
2023-04-16T08:49:13.964Z,10.41
2023-04-16T08:50:13.975Z,10.41
2023-04-16T08:51:13.937Z,10.41
2023-04-16T08:52:13.926Z,10.38
2023-04-16T08:53:13.916Z,10.38
2023-04-16T08:54:13.896Z,10.37
2023-04-16T08:55:13.927Z,10.34
2023-04-16T08:56:13.907Z,10.35
2023-04-16T08:57:13.876Z,10.34
2023-04-16T08:58:13.872Z,10.35
2023-04-16T08:59:13.844Z,10.34
2023-04-16T09:00:13.837Z,10.33
2023-04-16T09:01:13.822Z,10.33
2023-04-16T09:02:13.949Z,10.34
2023-04-16T09:03:14.025Z,10.33
2023-04-16T09:04:13.867Z,10.34
2023-04-16T09:05:13.804Z,10.31
2023-04-16T09:06:13.796Z,10.33
2023-04-16T09:07:13.784Z,10.33
2023-04-16T09:08:13.781Z,10.33
2023-04-16T09:09:13.767Z,10.34
2023-04-16T09:10:13.765Z,10.35
2023-04-16T09:11:13.744Z,10.34
2023-04-16T09:12:13.753Z,10.37
2023-04-16T09:13:13.720Z,10.35
2023-04-16T09:14:13.715Z,10.35
2023-04-16T09:15:13.683Z,10.37
2023-04-16T09:16:13.779Z,10.37
2023-04-16T09:17:13.698Z,10.37
2023-04-16T09:18:13.702Z,10.33
2023-04-16T09:19:13.639Z,10.31
2023-04-16T09:20:13.642Z,10.33
2023-04-16T09:21:13.652Z,10.33
2023-04-16T09:22:13.621Z,10.31
2023-04-16T09:23:13.649Z,10.33
2023-04-16T09:24:13.609Z,10.31
2023-04-16T09:25:13.619Z,10.28
2023-04-16T09:26:13.586Z,10.30
2023-04-16T09:27:13.592Z,10.31
2023-04-16T09:28:13.594Z,10.31
2023-04-16T09:29:13.578Z,10.31
2023-04-16T09:30:13.548Z,10.30
2023-04-16T09:31:13.554Z,10.30
2023-04-16T09:32:13.667Z,10.30
2023-04-16T09:33:13.536Z,10.28
2023-04-16T09:34:14.020Z,10.28
2023-04-16T09:35:13.495Z,10.26
2023-04-16T09:36:13.512Z,10.26
2023-04-16T09:37:13.497Z,10.26
2023-04-16T09:38:13.479Z,10.26
2023-04-16T09:39:13.454Z,10.28
2023-04-16T09:40:13.452Z,10.28
2023-04-16T09:41:13.423Z,10.28
2023-04-16T09:42:13.416Z,10.30
2023-04-16T09:43:13.415Z,10.26
2023-04-16T09:44:13.400Z,10.26
2023-04-16T09:45:13.405Z,10.26
2023-04-16T09:46:13.445Z,10.25
2023-04-16T09:47:13.379Z,10.23
2023-04-16T09:48:13.354Z,10.26
2023-04-16T09:49:13.454Z,10.23
2023-04-16T09:50:14.304Z,10.25
2023-04-16T09:51:13.398Z,10.25
2023-04-16T09:52:13.331Z,10.23
2023-04-16T09:53:13.312Z,10.22
2023-04-16T09:54:13.332Z,10.20
2023-04-16T09:55:13.300Z,10.20
2023-04-16T09:56:13.287Z,10.19
2023-04-16T09:57:13.293Z,10.20
2023-04-16T09:58:13.250Z,10.20
2023-04-16T09:59:13.257Z,10.19
2023-04-16T10:00:13.252Z,10.19
2023-04-16T10:01:13.350Z,10.19
2023-04-16T10:02:15.866Z,10.22
2023-04-16T10:03:13.367Z,10.19
2023-04-16T10:04:13.246Z,10.17
2023-04-16T10:05:13.187Z,10.20
2023-04-16T10:06:13.168Z,10.22
2023-04-16T10:07:13.156Z,10.23
2023-04-16T10:08:13.187Z,10.20
2023-04-16T10:09:13.170Z,10.22
2023-04-16T10:10:13.148Z,10.22
2023-04-16T10:11:13.125Z,10.22
2023-04-16T10:12:13.121Z,10.22
2023-04-16T10:13:13.117Z,10.19
2023-04-16T10:14:13.151Z,10.17
2023-04-16T10:15:13.098Z,10.16
2023-04-16T10:16:13.131Z,10.19
2023-04-16T10:17:13.091Z,10.19
2023-04-16T10:18:13.175Z,10.19
2023-04-16T10:19:13.156Z,10.23
2023-04-16T10:20:13.699Z,10.25
2023-04-16T10:21:13.067Z,10.23
2023-04-16T10:22:13.019Z,10.25
2023-04-16T10:23:13.005Z,10.26
2023-04-16T10:24:13.015Z,10.31
2023-04-16T10:25:13.000Z,10.33
2023-04-16T10:26:12.973Z,10.34
2023-04-16T10:27:12.964Z,10.38
2023-04-16T10:28:12.964Z,10.40
2023-04-16T10:29:13.011Z,10.44
2023-04-16T10:30:12.958Z,10.46
2023-04-16T10:31:13.010Z,10.46
2023-04-16T10:32:12.909Z,10.46
2023-04-16T10:33:12.898Z,10.46
2023-04-16T10:34:12.901Z,10.46
2023-04-16T10:35:13.260Z,10.44
2023-04-16T10:36:12.913Z,10.42
2023-04-16T10:37:12.882Z,10.44
2023-04-16T10:38:12.865Z,10.46
2023-04-16T10:39:15.436Z,10.48
2023-04-16T10:40:12.844Z,10.48
2023-04-16T10:41:12.857Z,10.48
2023-04-16T10:42:12.834Z,10.48
2023-04-16T10:43:12.812Z,10.48
2023-04-16T10:44:12.787Z,10.48
2023-04-16T10:45:12.789Z,10.48
2023-04-16T10:46:12.880Z,10.46
2023-04-16T10:47:12.844Z,10.48
2023-04-16T10:48:12.760Z,10.46
2023-04-16T10:49:12.757Z,10.48
2023-04-16T10:50:12.740Z,10.48
2023-04-16T10:51:12.711Z,10.48
2023-04-16T10:52:12.753Z,10.51
2023-04-16T10:53:12.678Z,10.51
2023-04-16T10:54:12.704Z,10.51
2023-04-16T10:55:12.694Z,10.51
2023-04-16T10:56:12.714Z,10.53
2023-04-16T10:57:12.670Z,10.51
2023-04-16T10:58:12.670Z,10.46
2023-04-16T10:59:12.852Z,10.48
2023-04-16T11:00:12.662Z,10.49
2023-04-16T11:01:12.644Z,10.48
2023-04-16T11:02:12.676Z,10.51
2023-04-16T11:03:12.792Z,10.53
2023-04-16T11:04:12.755Z,10.54
2023-04-16T11:05:12.597Z,10.56
2023-04-16T11:06:12.602Z,10.56
2023-04-16T11:07:12.538Z,10.54
2023-04-16T11:08:12.558Z,10.54
2023-04-16T11:09:12.636Z,10.54
2023-04-16T11:10:12.542Z,10.54
2023-04-16T11:11:12.519Z,10.53
2023-04-16T11:12:12.511Z,10.53
2023-04-16T11:13:12.482Z,10.54
2023-04-16T11:14:12.510Z,10.57
2023-04-16T11:15:12.485Z,10.53
2023-04-16T11:16:12.559Z,10.56
2023-04-16T11:17:12.463Z,10.57
2023-04-16T11:18:12.476Z,10.57
2023-04-16T11:19:12.447Z,10.59
2023-04-16T11:20:19.008Z,10.60
2023-04-16T11:21:12.421Z,10.60
2023-04-16T11:22:12.404Z,10.60
2023-04-16T11:23:12.391Z,10.61
2023-04-16T11:24:12.394Z,10.64
2023-04-16T11:25:12.389Z,10.64
2023-04-16T11:26:12.352Z,10.68
2023-04-16T11:27:12.343Z,10.72
2023-04-16T11:28:12.332Z,10.75
2023-04-16T11:29:12.347Z,10.79
2023-04-16T11:30:12.314Z,10.84
2023-04-16T11:31:12.325Z,10.87
2023-04-16T11:32:12.295Z,10.90
2023-04-16T11:33:12.317Z,10.94
2023-04-16T11:34:12.296Z,11.00
2023-04-16T11:35:12.308Z,11.07
2023-04-16T11:36:12.260Z,11.08
2023-04-16T11:37:12.251Z,11.14
2023-04-16T11:38:12.247Z,11.17
2023-04-16T11:39:12.461Z,11.18
2023-04-16T11:40:12.212Z,11.17
2023-04-16T11:41:12.251Z,11.19
2023-04-16T11:42:12.202Z,11.19
2023-04-16T11:43:12.188Z,11.22
2023-04-16T11:44:12.163Z,11.22
2023-04-16T11:45:12.159Z,11.18
2023-04-16T11:46:26.417Z,11.19
2023-04-16T11:47:12.208Z,11.17
2023-04-16T11:48:12.165Z,11.18
2023-04-16T11:49:12.423Z,11.22
2023-04-16T11:50:12.131Z,11.19
2023-04-16T11:51:12.132Z,11.17
2023-04-16T11:52:12.131Z,11.17
2023-04-16T11:53:12.090Z,11.18
2023-04-16T11:54:12.344Z,11.17
2023-04-16T11:55:12.062Z,11.17
2023-04-16T11:56:12.052Z,11.18
2023-04-16T11:57:12.084Z,11.17
2023-04-16T11:58:12.019Z,11.19
2023-04-16T11:59:12.335Z,11.15
2023-04-16T12:00:12.008Z,11.12
2023-04-16T12:01:12.008Z,11.12
2023-04-16T12:02:12.105Z,11.10
2023-04-16T12:03:12.224Z,11.11
2023-04-16T12:04:12.142Z,11.10
2023-04-16T12:05:12.088Z,11.08
2023-04-16T12:06:11.969Z,11.10
2023-04-16T12:07:11.935Z,11.10
2023-04-16T12:08:11.937Z,11.11
2023-04-16T12:09:12.150Z,11.11
2023-04-16T12:10:11.918Z,11.12
2023-04-16T12:11:11.925Z,11.11
2023-04-16T12:12:11.890Z,11.14
2023-04-16T12:13:11.911Z,11.11
2023-04-16T12:14:11.921Z,11.14
2023-04-16T12:15:11.887Z,11.12
2023-04-16T12:16:11.854Z,11.14
2023-04-16T12:17:11.909Z,11.18
2023-04-16T12:18:11.879Z,11.18
2023-04-16T12:19:11.973Z,11.19
2023-04-16T12:20:11.918Z,11.25
2023-04-16T12:21:11.804Z,11.25
2023-04-16T12:22:11.778Z,11.26
2023-04-16T12:23:11.785Z,11.30
2023-04-16T12:24:11.749Z,11.32
2023-04-16T12:25:11.752Z,11.33
2023-04-16T12:26:11.770Z,11.35
2023-04-16T12:27:11.740Z,11.35
2023-04-16T12:28:11.745Z,11.36
2023-04-16T12:29:11.869Z,11.35
2023-04-16T12:30:11.851Z,11.35
2023-04-16T12:31:11.776Z,11.35
2023-04-16T12:32:11.693Z,11.29
2023-04-16T12:33:11.728Z,11.26
2023-04-16T12:34:11.676Z,11.25
2023-04-16T12:35:11.658Z,11.23
2023-04-16T12:36:11.661Z,11.19
2023-04-16T12:37:11.653Z,11.23
2023-04-16T12:38:11.619Z,11.25
2023-04-16T12:39:11.851Z,11.23
2023-04-16T12:40:11.606Z,11.26
2023-04-16T12:41:11.605Z,11.26
2023-04-16T12:42:11.631Z,11.27
2023-04-16T12:43:11.583Z,11.29
2023-04-16T12:44:11.556Z,11.29
2023-04-16T12:45:11.566Z,11.33
2023-04-16T12:46:11.624Z,11.32
2023-04-16T12:47:11.564Z,11.35
2023-04-16T12:48:11.541Z,11.36
2023-04-16T12:49:11.744Z,11.36
2023-04-16T12:50:11.513Z,11.36
2023-04-16T12:51:11.491Z,11.41
2023-04-16T12:52:11.479Z,11.40
2023-04-16T12:53:11.526Z,11.37
2023-04-16T12:54:11.479Z,11.37
2023-04-16T12:55:11.459Z,11.41
2023-04-16T12:56:11.451Z,11.45
2023-04-16T12:57:11.447Z,11.48
2023-04-16T12:58:12.585Z,11.52
2023-04-16T12:59:11.531Z,11.54
2023-04-16T13:00:11.457Z,11.57
2023-04-16T13:01:11.401Z,11.59
2023-04-16T13:02:11.424Z,11.60
2023-04-16T13:03:11.558Z,11.63
2023-04-16T13:04:11.446Z,11.65
2023-04-16T13:05:11.345Z,11.70
2023-04-16T13:06:11.338Z,11.78
2023-04-16T13:07:11.367Z,11.84
2023-04-16T13:08:11.320Z,11.91